sensor_id;sensor_type;location;lat;lon;timestamp;P1;durP1;ratioP1;P2;durP2;ratioP2
39190;SDS011;24916;51.676;6.614;2023-08-06T00:01:42;3.33;;;2.45;;
39190;SDS011;24916;51.676;6.614;2023-08-06T00:04:07;4.10;;;2.55;;
39190;SDS011;24916;51.676;6.614;2023-08-06T00:06:32;9.32;;;2.97;;
39190;SDS011;24916;51.676;6.614;2023-08-06T00:08:57;5.88;;;2.70;;
39190;SDS011;24916;51.676;6.614;2023-08-06T00:11:23;5.22;;;2.88;;
39190;SDS011;24916;51.676;6.614;2023-08-06T00:13:48;4.50;;;3.17;;
39190;SDS011;24916;51.676;6.614;2023-08-06T00:16:13;4.80;;;2.83;;
39190;SDS011;24916;51.676;6.614;2023-08-06T00:18:39;5.85;;;2.78;;
39190;SDS011;24916;51.676;6.614;2023-08-06T00:21:04;7.05;;;3.22;;
39190;SDS011;24916;51.676;6.614;2023-08-06T00:23:29;5.75;;;3.65;;
39190;SDS011;24916;51.676;6.614;2023-08-06T00:25:54;4.93;;;3.47;;
39190;SDS011;24916;51.676;6.614;2023-08-06T00:28:20;4.70;;;3.37;;
39190;SDS011;24916;51.676;6.614;2023-08-06T00:30:45;3.90;;;2.85;;
39190;SDS011;24916;51.676;6.614;2023-08-06T00:33:10;8.80;;;3.53;;
39190;SDS011;24916;51.676;6.614;2023-08-06T00:35:35;4.13;;;3.17;;
39190;SDS011;24916;51.676;6.614;2023-08-06T00:38:00;3.90;;;2.80;;
39190;SDS011;24916;51.676;6.614;2023-08-06T00:40:26;7.80;;;2.70;;
39190;SDS011;24916;51.676;6.614;2023-08-06T00:42:53;3.78;;;2.38;;
39190;SDS011;24916;51.676;6.614;2023-08-06T00:45:18;5.38;;;2.95;;
39190;SDS011;24916;51.676;6.614;2023-08-06T00:47:43;8.02;;;2.80;;
39190;SDS011;24916;51.676;6.614;2023-08-06T00:50:09;7.43;;;3.08;;
39190;SDS011;24916;51.676;6.614;2023-08-06T00:52:34;8.48;;;3.03;;
39190;SDS011;24916;51.676;6.614;2023-08-06T00:55:00;4.05;;;2.97;;
39190;SDS011;24916;51.676;6.614;2023-08-06T00:57:25;5.70;;;3.08;;
39190;SDS011;24916;51.676;6.614;2023-08-06T00:59:51;6.15;;;3.40;;
39190;SDS011;24916;51.676;6.614;2023-08-06T01:02:17;6.00;;;3.13;;
39190;SDS011;24916;51.676;6.614;2023-08-06T01:04:42;4.22;;;2.70;;
39190;SDS011;24916;51.676;6.614;2023-08-06T01:12:43;4.35;;;2.75;;
39190;SDS011;24916;51.676;6.614;2023-08-06T01:17:44;6.72;;;2.60;;
39190;SDS011;24916;51.676;6.614;2023-08-06T01:20:10;6.93;;;2.58;;
39190;SDS011;24916;51.676;6.614;2023-08-06T01:22:35;5.82;;;2.67;;
39190;SDS011;24916;51.676;6.614;2023-08-06T01:25:00;4.72;;;2.88;;
39190;SDS011;24916;51.676;6.614;2023-08-06T01:27:47;5.53;;;3.33;;
39190;SDS011;24916;51.676;6.614;2023-08-06T01:32:36;2.70;;;2.25;;
39190;SDS011;24916;51.676;6.614;2023-08-06T01:35:04;2.63;;;2.25;;
39190;SDS011;24916;51.676;6.614;2023-08-06T01:37:29;4.10;;;2.67;;
39190;SDS011;24916;51.676;6.614;2023-08-06T01:39:54;3.88;;;3.25;;
39190;SDS011;24916;51.676;6.614;2023-08-06T01:42:20;3.67;;;2.65;;
39190;SDS011;24916;51.676;6.614;2023-08-06T01:44:45;4.68;;;3.10;;
39190;SDS011;24916;51.676;6.614;2023-08-06T01:47:10;12.40;;;3.38;;
39190;SDS011;24916;51.676;6.614;2023-08-06T01:49:35;4.65;;;3.47;;
39190;SDS011;24916;51.676;6.614;2023-08-06T01:52:01;4.93;;;3.30;;
39190;SDS011;24916;51.676;6.614;2023-08-06T01:54:26;7.28;;;3.40;;
39190;SDS011;24916;51.676;6.614;2023-08-06T01:56:52;4.35;;;3.88;;
39190;SDS011;24916;51.676;6.614;2023-08-06T01:59:18;4.63;;;3.40;;
39190;SDS011;24916;51.676;6.614;2023-08-06T02:01:43;5.25;;;3.65;;
39190;SDS011;24916;51.676;6.614;2023-08-06T02:04:08;10.25;;;4.00;;
39190;SDS011;24916;51.676;6.614;2023-08-06T02:06:33;7.70;;;5.20;;
39190;SDS011;24916;51.676;6.614;2023-08-06T02:08:58;6.23;;;4.77;;
39190;SDS011;24916;51.676;6.614;2023-08-06T02:11:24;6.33;;;4.03;;
39190;SDS011;24916;51.676;6.614;2023-08-06T02:13:49;6.83;;;4.47;;
39190;SDS011;24916;51.676;6.614;2023-08-06T02:16:14;5.43;;;4.47;;
39190;SDS011;24916;51.676;6.614;2023-08-06T02:18:39;6.93;;;4.32;;
39190;SDS011;24916;51.676;6.614;2023-08-06T02:21:04;14.97;;;4.87;;
39190;SDS011;24916;51.676;6.614;2023-08-06T02:23:30;5.30;;;4.43;;
39190;SDS011;24916;51.676;6.614;2023-08-06T02:25:59;9.48;;;4.60;;
39190;SDS011;24916;51.676;6.614;2023-08-06T02:28:24;10.23;;;5.10;;
39190;SDS011;24916;51.676;6.614;2023-08-06T02:30:50;10.88;;;5.07;;
39190;SDS011;24916;51.676;6.614;2023-08-06T02:33:15;5.70;;;4.80;;
39190;SDS011;24916;51.676;6.614;2023-08-06T02:35:41;7.07;;;5.00;;
39190;SDS011;24916;51.676;6.614;2023-08-06T02:38:06;5.28;;;4.55;;
39190;SDS011;24916;51.676;6.614;2023-08-06T02:40:31;6.40;;;4.30;;
39190;SDS011;24916;51.676;6.614;2023-08-06T02:42:56;11.13;;;4.85;;
39190;SDS011;24916;51.676;6.614;2023-08-06T02:45:21;6.20;;;4.45;;
39190;SDS011;24916;51.676;6.614;2023-08-06T02:47:47;5.05;;;4.15;;
39190;SDS011;24916;51.676;6.614;2023-08-06T02:50:12;5.80;;;4.70;;
39190;SDS011;24916;51.676;6.614;2023-08-06T02:52:37;6.50;;;4.72;;
39190;SDS011;24916;51.676;6.614;2023-08-06T02:55:03;4.32;;;3.63;;
39190;SDS011;24916;51.676;6.614;2023-08-06T02:57:29;7.75;;;4.28;;
39190;SDS011;24916;51.676;6.614;2023-08-06T02:59:54;5.22;;;4.18;;
39190;SDS011;24916;51.676;6.614;2023-08-06T03:02:19;5.28;;;3.75;;
39190;SDS011;24916;51.676;6.614;2023-08-06T03:04:44;7.00;;;3.85;;
39190;SDS011;24916;51.676;6.614;2023-08-06T03:07:10;10.50;;;4.00;;
39190;SDS011;24916;51.676;6.614;2023-08-06T03:09:35;6.57;;;3.55;;
39190;SDS011;24916;51.676;6.614;2023-08-06T03:12:00;6.67;;;3.30;;
39190;SDS011;24916;51.676;6.614;2023-08-06T03:14:25;3.85;;;2.63;;
39190;SDS011;24916;51.676;6.614;2023-08-06T03:16:50;5.47;;;3.43;;
39190;SDS011;24916;51.676;6.614;2023-08-06T03:19:16;5.70;;;4.45;;
39190;SDS011;24916;51.676;6.614;2023-08-06T03:21:41;9.35;;;3.17;;
39190;SDS011;24916;51.676;6.614;2023-08-06T03:24:06;4.70;;;3.05;;
39190;SDS011;24916;51.676;6.614;2023-08-06T03:26:31;4.18;;;3.58;;
39190;SDS011;24916;51.676;6.614;2023-08-06T03:28:56;6.85;;;3.20;;
39190;SDS011;24916;51.676;6.614;2023-08-06T03:31:22;4.50;;;2.95;;
39190;SDS011;24916;51.676;6.614;2023-08-06T03:33:47;5.53;;;3.00;;
39190;SDS011;24916;51.676;6.614;2023-08-06T03:36:12;4.22;;;3.08;;
39190;SDS011;24916;51.676;6.614;2023-08-06T03:38:37;3.92;;;3.00;;
39190;SDS011;24916;51.676;6.614;2023-08-06T03:41:03;4.40;;;2.60;;
39190;SDS011;24916;51.676;6.614;2023-08-06T03:43:28;10.68;;;3.33;;
39190;SDS011;24916;51.676;6.614;2023-08-06T03:45:53;4.80;;;3.33;;
39190;SDS011;24916;51.676;6.614;2023-08-06T03:48:18;5.00;;;3.25;;
39190;SDS011;24916;51.676;6.614;2023-08-06T03:50:43;4.25;;;2.88;;
39190;SDS011;24916;51.676;6.614;2023-08-06T03:53:09;4.70;;;2.80;;
39190;SDS011;24916;51.676;6.614;2023-08-06T03:55:34;6.10;;;3.03;;
39190;SDS011;24916;51.676;6.614;2023-08-06T03:57:59;4.28;;;3.30;;
39190;SDS011;24916;51.676;6.614;2023-08-06T04:00:24;4.40;;;3.10;;
39190;SDS011;24916;51.676;6.614;2023-08-06T04:02:50;7.30;;;4.70;;
39190;SDS011;24916;51.676;6.614;2023-08-06T04:05:15;4.10;;;2.95;;
39190;SDS011;24916;51.676;6.614;2023-08-06T04:07:40;4.38;;;3.33;;
39190;SDS011;24916;51.676;6.614;2023-08-06T04:10:06;6.18;;;4.70;;
39190;SDS011;24916;51.676;6.614;2023-08-06T04:12:31;4.72;;;2.95;;
39190;SDS011;24916;51.676;6.614;2023-08-06T04:14:57;4.57;;;2.85;;
39190;SDS011;24916;51.676;6.614;2023-08-06T04:17:23;3.90;;;2.85;;
39190;SDS011;24916;51.676;6.614;2023-08-06T04:19:53;5.35;;;2.78;;
39190;SDS011;24916;51.676;6.614;2023-08-06T04:22:18;4.57;;;3.53;;
39190;SDS011;24916;51.676;6.614;2023-08-06T04:24:43;4.35;;;2.90;;
39190;SDS011;24916;51.676;6.614;2023-08-06T04:27:09;6.63;;;3.88;;
39190;SDS011;24916;51.676;6.614;2023-08-06T04:29:34;7.53;;;4.03;;
39190;SDS011;24916;51.676;6.614;2023-08-06T04:31:59;5.53;;;3.55;;
39190;SDS011;24916;51.676;6.614;2023-08-06T04:34:25;6.07;;;3.40;;
39190;SDS011;24916;51.676;6.614;2023-08-06T04:36:50;9.98;;;3.25;;
39190;SDS011;24916;51.676;6.614;2023-08-06T04:39:15;5.40;;;3.28;;
39190;SDS011;24916;51.676;6.614;2023-08-06T04:41:40;3.72;;;3.08;;
39190;SDS011;24916;51.676;6.614;2023-08-06T04:44:06;4.10;;;3.35;;
39190;SDS011;24916;51.676;6.614;2023-08-06T04:46:31;3.28;;;2.92;;
39190;SDS011;24916;51.676;6.614;2023-08-06T04:48:56;4.10;;;2.70;;
39190;SDS011;24916;51.676;6.614;2023-08-06T04:51:21;6.47;;;3.50;;
39190;SDS011;24916;51.676;6.614;2023-08-06T04:53:46;6.63;;;3.60;;
39190;SDS011;24916;51.676;6.614;2023-08-06T04:56:14;4.93;;;3.25;;
39190;SDS011;24916;51.676;6.614;2023-08-06T04:58:39;7.32;;;3.75;;
39190;SDS011;24916;51.676;6.614;2023-08-06T05:01:04;6.68;;;3.40;;
39190;SDS011;24916;51.676;6.614;2023-08-06T05:03:30;8.32;;;3.78;;
39190;SDS011;24916;51.676;6.614;2023-08-06T05:05:55;6.15;;;3.40;;
39190;SDS011;24916;51.676;6.614;2023-08-06T05:08:20;7.28;;;3.50;;
39190;SDS011;24916;51.676;6.614;2023-08-06T05:10:45;5.35;;;3.30;;
39190;SDS011;24916;51.676;6.614;2023-08-06T05:13:11;9.02;;;4.22;;
39190;SDS011;24916;51.676;6.614;2023-08-06T05:15:36;5.30;;;3.78;;
39190;SDS011;24916;51.676;6.614;2023-08-06T05:18:01;6.23;;;3.77;;
39190;SDS011;24916;51.676;6.614;2023-08-06T05:20:26;6.20;;;3.55;;
39190;SDS011;24916;51.676;6.614;2023-08-06T05:22:51;6.05;;;3.85;;
39190;SDS011;24916;51.676;6.614;2023-08-06T05:25:17;5.28;;;4.10;;
39190;SDS011;24916;51.676;6.614;2023-08-06T05:27:42;5.80;;;4.10;;
39190;SDS011;24916;51.676;6.614;2023-08-06T05:30:07;7.13;;;4.35;;
39190;SDS011;24916;51.676;6.614;2023-08-06T05:32:33;4.30;;;3.50;;
39190;SDS011;24916;51.676;6.614;2023-08-06T05:34:58;3.92;;;3.53;;
39190;SDS011;24916;51.676;6.614;2023-08-06T05:37:23;5.05;;;3.25;;
39190;SDS011;24916;51.676;6.614;2023-08-06T05:39:48;8.52;;;4.22;;
39190;SDS011;24916;51.676;6.614;2023-08-06T05:42:14;4.47;;;3.55;;
39190;SDS011;24916;51.676;6.614;2023-08-06T05:44:39;4.13;;;3.63;;
39190;SDS011;24916;51.676;6.614;2023-08-06T05:47:04;6.22;;;3.40;;
39190;SDS011;24916;51.676;6.614;2023-08-06T05:49:30;4.57;;;3.53;;
39190;SDS011;24916;51.676;6.614;2023-08-06T05:51:55;4.40;;;3.53;;
39190;SDS011;24916;51.676;6.614;2023-08-06T05:54:20;4.90;;;3.28;;
39190;SDS011;24916;51.676;6.614;2023-08-06T05:56:45;11.48;;;3.85;;
39190;SDS011;24916;51.676;6.614;2023-08-06T05:59:10;5.50;;;3.17;;
39190;SDS011;24916;51.676;6.614;2023-08-06T06:01:36;4.68;;;3.45;;
39190;SDS011;24916;51.676;6.614;2023-08-06T06:04:01;6.05;;;3.42;;
39190;SDS011;24916;51.676;6.614;2023-08-06T06:06:26;7.25;;;3.80;;
39190;SDS011;24916;51.676;6.614;2023-08-06T06:08:51;6.43;;;3.40;;
39190;SDS011;24916;51.676;6.614;2023-08-06T06:11:17;7.00;;;3.42;;
39190;SDS011;24916;51.676;6.614;2023-08-06T06:13:44;7.93;;;3.55;;
39190;SDS011;24916;51.676;6.614;2023-08-06T06:16:09;4.40;;;3.28;;
39190;SDS011;24916;51.676;6.614;2023-08-06T06:18:35;5.03;;;3.40;;
39190;SDS011;24916;51.676;6.614;2023-08-06T06:21:00;6.43;;;3.00;;
39190;SDS011;24916;51.676;6.614;2023-08-06T06:23:25;4.03;;;2.80;;
39190;SDS011;24916;51.676;6.614;2023-08-06T06:25:50;6.03;;;3.43;;
39190;SDS011;24916;51.676;6.614;2023-08-06T06:28:17;6.35;;;2.70;;
39190;SDS011;24916;51.676;6.614;2023-08-06T06:30:42;6.82;;;3.47;;
39190;SDS011;24916;51.676;6.614;2023-08-06T06:33:07;7.45;;;2.80;;
39190;SDS011;24916;51.676;6.614;2023-08-06T06:35:32;5.95;;;3.20;;
39190;SDS011;24916;51.676;6.614;2023-08-06T06:37:57;6.72;;;3.58;;
39190;SDS011;24916;51.676;6.614;2023-08-06T06:40:23;6.05;;;3.17;;
39190;SDS011;24916;51.676;6.614;2023-08-06T06:42:48;6.27;;;3.40;;
39190;SDS011;24916;51.676;6.614;2023-08-06T06:45:13;4.33;;;3.27;;
39190;SDS011;24916;51.676;6.614;2023-08-06T06:47:38;6.93;;;3.22;;
39190;SDS011;24916;51.676;6.614;2023-08-06T06:50:04;4.83;;;3.50;;
39190;SDS011;24916;51.676;6.614;2023-08-06T06:52:29;8.48;;;3.22;;
39190;SDS011;24916;51.676;6.614;2023-08-06T06:54:54;4.85;;;3.10;;
39190;SDS011;24916;51.676;6.614;2023-08-06T06:57:19;5.88;;;2.95;;
39190;SDS011;24916;51.676;6.614;2023-08-06T06:59:45;5.03;;;2.97;;
39190;SDS011;24916;51.676;6.614;2023-08-06T07:02:10;5.30;;;3.13;;
39190;SDS011;24916;51.676;6.614;2023-08-06T07:04:35;4.28;;;2.92;;
39190;SDS011;24916;51.676;6.614;2023-08-06T07:07:00;5.88;;;3.28;;
39190;SDS011;24916;51.676;6.614;2023-08-06T07:09:26;6.13;;;2.80;;
39190;SDS011;24916;51.676;6.614;2023-08-06T07:11:52;4.88;;;3.58;;
39190;SDS011;24916;51.676;6.614;2023-08-06T07:14:17;27.70;;;23.02;;
39190;SDS011;24916;51.676;6.614;2023-08-06T07:16:42;18.02;;;11.07;;
39190;SDS011;24916;51.676;6.614;2023-08-06T07:19:07;6.47;;;3.60;;
39190;SDS011;24916;51.676;6.614;2023-08-06T07:21:32;5.03;;;2.90;;
39190;SDS011;24916;51.676;6.614;2023-08-06T07:23:58;4.13;;;2.40;;
39190;SDS011;24916;51.676;6.614;2023-08-06T07:26:24;4.28;;;2.95;;
39190;SDS011;24916;51.676;6.614;2023-08-06T07:28:49;5.90;;;2.88;;
39190;SDS011;24916;51.676;6.614;2023-08-06T07:31:15;5.30;;;2.78;;
39190;SDS011;24916;51.676;6.614;2023-08-06T07:33:40;9.05;;;7.82;;
39190;SDS011;24916;51.676;6.614;2023-08-06T07:36:09;5.60;;;3.23;;
39190;SDS011;24916;51.676;6.614;2023-08-06T07:38:35;6.97;;;3.30;;
39190;SDS011;24916;51.676;6.614;2023-08-06T07:41:03;5.70;;;3.33;;
39190;SDS011;24916;51.676;6.614;2023-08-06T07:43:29;10.00;;;7.00;;
39190;SDS011;24916;51.676;6.614;2023-08-06T07:45:57;5.07;;;2.90;;
39190;SDS011;24916;51.676;6.614;2023-08-06T07:48:22;5.90;;;2.15;;
39190;SDS011;24916;51.676;6.614;2023-08-06T07:50:50;8.00;;;4.60;;
39190;SDS011;24916;51.676;6.614;2023-08-06T07:53:18;18.05;;;13.43;;
39190;SDS011;24916;51.676;6.614;2023-08-06T07:55:43;5.82;;;3.67;;
39190;SDS011;24916;51.676;6.614;2023-08-06T07:58:08;5.03;;;2.42;;
39190;SDS011;24916;51.676;6.614;2023-08-06T08:00:33;4.73;;;2.40;;
39190;SDS011;24916;51.676;6.614;2023-08-06T08:02:59;5.22;;;2.22;;
39190;SDS011;24916;51.676;6.614;2023-08-06T08:05:24;4.13;;;2.40;;
39190;SDS011;24916;51.676;6.614;2023-08-06T08:07:49;4.47;;;2.10;;
39190;SDS011;24916;51.676;6.614;2023-08-06T08:10:14;6.45;;;2.00;;
39190;SDS011;24916;51.676;6.614;2023-08-06T08:12:40;4.82;;;2.25;;
39190;SDS011;24916;51.676;6.614;2023-08-06T08:15:05;4.68;;;1.90;;
39190;SDS011;24916;51.676;6.614;2023-08-06T08:17:30;3.40;;;1.85;;
39190;SDS011;24916;51.676;6.614;2023-08-06T08:19:56;3.35;;;2.17;;
39190;SDS011;24916;51.676;6.614;2023-08-06T08:22:21;4.80;;;2.73;;
39190;SDS011;24916;51.676;6.614;2023-08-06T08:24:46;7.60;;;6.32;;
39190;SDS011;24916;51.676;6.614;2023-08-06T08:27:11;5.97;;;4.87;;
39190;SDS011;24916;51.676;6.614;2023-08-06T08:29:37;8.13;;;5.67;;
39190;SDS011;24916;51.676;6.614;2023-08-06T08:32:02;8.27;;;6.18;;
39190;SDS011;24916;51.676;6.614;2023-08-06T08:34:29;7.15;;;6.40;;
39190;SDS011;24916;51.676;6.614;2023-08-06T08:36:55;7.88;;;7.07;;
39190;SDS011;24916;51.676;6.614;2023-08-06T08:39:20;20.00;;;7.30;;
39190;SDS011;24916;51.676;6.614;2023-08-06T08:41:45;19.85;;;15.63;;
39190;SDS011;24916;51.676;6.614;2023-08-06T08:44:10;12.43;;;7.35;;
39190;SDS011;24916;51.676;6.614;2023-08-06T08:46:38;6.78;;;6.07;;
39190;SDS011;24916;51.676;6.614;2023-08-06T08:49:05;7.18;;;6.47;;
39190;SDS011;24916;51.676;6.614;2023-08-06T08:51:31;7.15;;;6.38;;
39190;SDS011;24916;51.676;6.614;2023-08-06T08:53:57;7.28;;;6.57;;
39190;SDS011;24916;51.676;6.614;2023-08-06T09:05:37;8.70;;;6.80;;
39190;SDS011;24916;51.676;6.614;2023-08-06T09:08:06;9.30;;;8.32;;
39190;SDS011;24916;51.676;6.614;2023-08-06T09:10:35;8.82;;;8.07;;
39190;SDS011;24916;51.676;6.614;2023-08-06T09:21:14;7.40;;;6.07;;
39190;SDS011;24916;51.676;6.614;2023-08-06T09:23:40;9.57;;;8.70;;
39190;SDS011;24916;51.676;6.614;2023-08-06T09:26:05;9.15;;;8.35;;
39190;SDS011;24916;51.676;6.614;2023-08-06T09:28:37;8.25;;;7.45;;
39190;SDS011;24916;51.676;6.614;2023-08-06T09:31:04;8.73;;;7.93;;
39190;SDS011;24916;51.676;6.614;2023-08-06T09:33:29;10.82;;;8.27;;
39190;SDS011;24916;51.676;6.614;2023-08-06T09:35:54;9.57;;;8.60;;
39190;SDS011;24916;51.676;6.614;2023-08-06T09:38:20;7.80;;;7.03;;
39190;SDS011;24916;51.676;6.614;2023-08-06T09:40:45;8.18;;;7.47;;
39190;SDS011;24916;51.676;6.614;2023-08-06T09:43:11;7.55;;;6.68;;
39190;SDS011;24916;51.676;6.614;2023-08-06T09:45:37;7.53;;;6.57;;
39190;SDS011;24916;51.676;6.614;2023-08-06T09:48:06;7.57;;;6.88;;
39190;SDS011;24916;51.676;6.614;2023-08-06T09:50:32;8.30;;;6.55;;
39190;SDS011;24916;51.676;6.614;2023-08-06T09:52:58;9.38;;;8.48;;
39190;SDS011;24916;51.676;6.614;2023-08-06T09:55:24;8.75;;;7.60;;
39190;SDS011;24916;51.676;6.614;2023-08-06T09:57:50;9.35;;;8.43;;
39190;SDS011;24916;51.676;6.614;2023-08-06T10:00:15;8.73;;;7.82;;
39190;SDS011;24916;51.676;6.614;2023-08-06T10:02:41;8.75;;;7.85;;
39190;SDS011;24916;51.676;6.614;2023-08-06T10:05:07;10.65;;;7.95;;
39190;SDS011;24916;51.676;6.614;2023-08-06T10:07:33;11.50;;;7.95;;
39190;SDS011;24916;51.676;6.614;2023-08-06T10:09:58;8.68;;;7.85;;
39190;SDS011;24916;51.676;6.614;2023-08-06T10:12:24;9.13;;;8.23;;
39190;SDS011;24916;51.676;6.614;2023-08-06T10:14:50;9.02;;;8.13;;
39190;SDS011;24916;51.676;6.614;2023-08-06T10:17:16;8.98;;;8.27;;
39190;SDS011;24916;51.676;6.614;2023-08-06T10:19:41;8.40;;;7.70;;
39190;SDS011;24916;51.676;6.614;2023-08-06T10:24:48;11.02;;;8.82;;
39190;SDS011;24916;51.676;6.614;2023-08-06T10:27:13;9.60;;;8.68;;
39190;SDS011;24916;51.676;6.614;2023-08-06T10:29:39;9.85;;;9.00;;
39190;SDS011;24916;51.676;6.614;2023-08-06T10:32:04;9.13;;;7.40;;
39190;SDS011;24916;51.676;6.614;2023-08-06T10:37:15;10.00;;;6.72;;
39190;SDS011;24916;51.676;6.614;2023-08-06T10:39:47;8.07;;;7.28;;
39190;SDS011;24916;51.676;6.614;2023-08-06T10:42:19;11.13;;;8.90;;
39190;SDS011;24916;51.676;6.614;2023-08-06T10:47:29;9.35;;;8.40;;
39190;SDS011;24916;51.676;6.614;2023-08-06T10:49:54;9.30;;;8.48;;
39190;SDS011;24916;51.676;6.614;2023-08-06T10:52:20;10.43;;;9.10;;
39190;SDS011;24916;51.676;6.614;2023-08-06T10:54:45;10.03;;;9.23;;
39190;SDS011;24916;51.676;6.614;2023-08-06T10:57:11;12.57;;;11.38;;
39190;SDS011;24916;51.676;6.614;2023-08-06T10:59:36;10.85;;;9.85;;
39190;SDS011;24916;51.676;6.614;2023-08-06T11:02:01;11.27;;;9.73;;
39190;SDS011;24916;51.676;6.614;2023-08-06T11:04:30;10.60;;;9.57;;
39190;SDS011;24916;51.676;6.614;2023-08-06T11:06:55;10.38;;;8.77;;
39190;SDS011;24916;51.676;6.614;2023-08-06T11:09:20;9.60;;;8.80;;
39190;SDS011;24916;51.676;6.614;2023-08-06T11:11:49;8.32;;;7.53;;
39190;SDS011;24916;51.676;6.614;2023-08-06T11:14:15;6.97;;;6.30;;
39190;SDS011;24916;51.676;6.614;2023-08-06T11:16:40;3.58;;;2.97;;
39190;SDS011;24916;51.676;6.614;2023-08-06T11:19:08;3.08;;;2.78;;
39190;SDS011;24916;51.676;6.614;2023-08-06T11:21:34;3.30;;;2.75;;
39190;SDS011;24916;51.676;6.614;2023-08-06T11:23:59;6.65;;;2.38;;
39190;SDS011;24916;51.676;6.614;2023-08-06T11:26:31;4.88;;;1.30;;
39190;SDS011;24916;51.676;6.614;2023-08-06T11:28:56;1.55;;;1.00;;
39190;SDS011;24916;51.676;6.614;2023-08-06T11:31:22;1.30;;;0.93;;
39190;SDS011;24916;51.676;6.614;2023-08-06T11:33:49;1.13;;;1.00;;
39190;SDS011;24916;51.676;6.614;2023-08-06T11:36:14;2.45;;;1.50;;
39190;SDS011;24916;51.676;6.614;2023-08-06T11:38:40;4.78;;;1.10;;
39190;SDS011;24916;51.676;6.614;2023-08-06T11:41:08;3.47;;;0.90;;
39190;SDS011;24916;51.676;6.614;2023-08-06T11:43:34;1.65;;;0.65;;
39190;SDS011;24916;51.676;6.614;2023-08-06T11:45:59;0.63;;;0.50;;
39190;SDS011;24916;51.676;6.614;2023-08-06T11:48:25;0.93;;;0.40;;
39190;SDS011;24916;51.676;6.614;2023-08-06T11:50:53;1.45;;;1.13;;
39190;SDS011;24916;51.676;6.614;2023-08-06T11:53:26;2.50;;;2.15;;
39190;SDS011;24916;51.676;6.614;2023-08-06T11:55:55;3.58;;;1.48;;
39190;SDS011;24916;51.676;6.614;2023-08-06T11:58:20;0.65;;;0.30;;
39190;SDS011;24916;51.676;6.614;2023-08-06T12:00:48;0.20;;;0.20;;
39190;SDS011;24916;51.676;6.614;2023-08-06T12:03:14;1.00;;;0.38;;
39190;SDS011;24916;51.676;6.614;2023-08-06T12:05:39;2.45;;;1.23;;
39190;SDS011;24916;51.676;6.614;2023-08-06T12:11:04;2.30;;;1.05;;
39190;SDS011;24916;51.676;6.614;2023-08-06T12:13:30;0.82;;;0.60;;
39190;SDS011;24916;51.676;6.614;2023-08-06T12:15:55;0.50;;;0.25;;
39190;SDS011;24916;51.676;6.614;2023-08-06T12:18:22;0.25;;;0.25;;
39190;SDS011;24916;51.676;6.614;2023-08-06T12:20:47;1.23;;;0.30;;
39190;SDS011;24916;51.676;6.614;2023-08-06T12:23:13;0.52;;;0.30;;
39190;SDS011;24916;51.676;6.614;2023-08-06T12:25:41;0.73;;;0.22;;
39190;SDS011;24916;51.676;6.614;2023-08-06T12:28:09;0.50;;;0.30;;
39190;SDS011;24916;51.676;6.614;2023-08-06T12:30:35;0.32;;;0.20;;
39190;SDS011;24916;51.676;6.614;2023-08-06T12:33:01;0.40;;;0.30;;
39190;SDS011;24916;51.676;6.614;2023-08-06T12:35:26;8.23;;;5.22;;
39190;SDS011;24916;51.676;6.614;2023-08-06T12:37:51;1.58;;;0.80;;
39190;SDS011;24916;51.676;6.614;2023-08-06T12:40:19;0.57;;;0.50;;
39190;SDS011;24916;51.676;6.614;2023-08-06T12:42:44;2.72;;;1.73;;
39190;SDS011;24916;51.676;6.614;2023-08-06T12:45:10;1.40;;;1.30;;
39190;SDS011;24916;51.676;6.614;2023-08-06T12:47:35;1.35;;;1.05;;
39190;SDS011;24916;51.676;6.614;2023-08-06T12:50:03;0.43;;;0.38;;
39190;SDS011;24916;51.676;6.614;2023-08-06T12:52:29;0.70;;;0.52;;
39190;SDS011;24916;51.676;6.614;2023-08-06T12:54:54;1.55;;;0.30;;
39190;SDS011;24916;51.676;6.614;2023-08-06T12:57:23;0.57;;;0.43;;
39190;SDS011;24916;51.676;6.614;2023-08-06T12:59:48;0.88;;;0.60;;
39190;SDS011;24916;51.676;6.614;2023-08-06T13:02:13;1.77;;;0.73;;
39190;SDS011;24916;51.676;6.614;2023-08-06T13:04:38;0.88;;;0.60;;
39190;SDS011;24916;51.676;6.614;2023-08-06T13:07:04;1.27;;;0.70;;
39190;SDS011;24916;51.676;6.614;2023-08-06T13:09:31;1.63;;;1.10;;
39190;SDS011;24916;51.676;6.614;2023-08-06T13:11:56;2.28;;;1.52;;
39190;SDS011;24916;51.676;6.614;2023-08-06T13:14:22;1.95;;;1.70;;
39190;SDS011;24916;51.676;6.614;2023-08-06T13:16:48;4.85;;;1.20;;
39190;SDS011;24916;51.676;6.614;2023-08-06T13:19:13;1.92;;;1.33;;
39190;SDS011;24916;51.676;6.614;2023-08-06T13:24:07;2.10;;;1.75;;
39190;SDS011;24916;51.676;6.614;2023-08-06T13:26:32;5.95;;;2.13;;
39190;SDS011;24916;51.676;6.614;2023-08-06T13:28:58;3.08;;;1.95;;
39190;SDS011;24916;51.676;6.614;2023-08-06T13:31:23;3.20;;;1.52;;
39190;SDS011;24916;51.676;6.614;2023-08-06T13:33:49;2.13;;;1.35;;
39190;SDS011;24916;51.676;6.614;2023-08-06T13:36:15;4.93;;;1.30;;
39190;SDS011;24916;51.676;6.614;2023-08-06T13:38:40;1.08;;;0.98;;
39190;SDS011;24916;51.676;6.614;2023-08-06T13:41:05;1.98;;;1.38;;
39190;SDS011;24916;51.676;6.614;2023-08-06T13:43:31;2.33;;;1.25;;
39190;SDS011;24916;51.676;6.614;2023-08-06T13:45:56;2.55;;;1.40;;
39190;SDS011;24916;51.676;6.614;2023-08-06T13:48:22;2.35;;;1.30;;
39190;SDS011;24916;51.676;6.614;2023-08-06T13:50:47;2.70;;;1.38;;
39190;SDS011;24916;51.676;6.614;2023-08-06T13:53:13;1.70;;;1.23;;
39190;SDS011;24916;51.676;6.614;2023-08-06T13:55:38;3.40;;;2.45;;
39190;SDS011;24916;51.676;6.614;2023-08-06T13:58:03;3.85;;;2.47;;
39190;SDS011;24916;51.676;6.614;2023-08-06T14:00:28;5.30;;;3.13;;
39190;SDS011;24916;51.676;6.614;2023-08-06T14:02:54;3.90;;;2.55;;
39190;SDS011;24916;51.676;6.614;2023-08-06T14:05:19;5.85;;;1.88;;
39190;SDS011;24916;51.676;6.614;2023-08-06T14:07:44;3.15;;;2.25;;
39190;SDS011;24916;51.676;6.614;2023-08-06T14:10:09;4.03;;;2.08;;
39190;SDS011;24916;51.676;6.614;2023-08-06T14:12:35;4.90;;;2.13;;
39190;SDS011;24916;51.676;6.614;2023-08-06T14:15:00;3.10;;;1.90;;
39190;SDS011;24916;51.676;6.614;2023-08-06T14:17:26;5.13;;;2.10;;
39190;SDS011;24916;51.676;6.614;2023-08-06T14:19:52;3.67;;;1.50;;
39190;SDS011;24916;51.676;6.614;2023-08-06T14:22:17;4.20;;;2.83;;
39190;SDS011;24916;51.676;6.614;2023-08-06T14:24:42;4.25;;;2.20;;
39190;SDS011;24916;51.676;6.614;2023-08-06T14:27:08;4.30;;;2.38;;
39190;SDS011;24916;51.676;6.614;2023-08-06T14:29:33;2.08;;;1.40;;
39190;SDS011;24916;51.676;6.614;2023-08-06T14:31:58;4.20;;;1.60;;
39190;SDS011;24916;51.676;6.614;2023-08-06T14:34:24;3.22;;;1.88;;
39190;SDS011;24916;51.676;6.614;2023-08-06T14:36:49;3.40;;;1.73;;
39190;SDS011;24916;51.676;6.614;2023-08-06T14:39:15;3.00;;;1.70;;
39190;SDS011;24916;51.676;6.614;2023-08-06T14:41:40;3.58;;;1.90;;
39190;SDS011;24916;51.676;6.614;2023-08-06T14:44:05;2.80;;;1.80;;
39190;SDS011;24916;51.676;6.614;2023-08-06T14:46:32;3.42;;;1.90;;
39190;SDS011;24916;51.676;6.614;2023-08-06T14:48:57;2.83;;;1.50;;
39190;SDS011;24916;51.676;6.614;2023-08-06T14:51:22;3.47;;;1.85;;
39190;SDS011;24916;51.676;6.614;2023-08-06T14:53:48;3.08;;;1.27;;
39190;SDS011;24916;51.676;6.614;2023-08-06T14:56:13;1.30;;;1.20;;
39190;SDS011;24916;51.676;6.614;2023-08-06T14:58:38;2.78;;;1.42;;
39190;SDS011;24916;51.676;6.614;2023-08-06T15:01:04;3.35;;;1.75;;
39190;SDS011;24916;51.676;6.614;2023-08-06T15:03:29;3.67;;;2.00;;
39190;SDS011;24916;51.676;6.614;2023-08-06T15:05:56;3.45;;;1.27;;
39190;SDS011;24916;51.676;6.614;2023-08-06T15:08:21;2.35;;;1.45;;
39190;SDS011;24916;51.676;6.614;2023-08-06T15:10:50;3.33;;;1.70;;
39190;SDS011;24916;51.676;6.614;2023-08-06T15:13:16;3.38;;;1.13;;
39190;SDS011;24916;51.676;6.614;2023-08-06T15:15:41;1.95;;;1.50;;
39190;SDS011;24916;51.676;6.614;2023-08-06T15:18:07;2.78;;;1.27;;